createdAt,value
2019-04-27T00:02:44.013Z,99770.09
2019-04-27T00:05:35.459Z,99769.25
2019-04-27T00:08:16.129Z,99775.06
2019-04-27T00:11:06.917Z,99776.92
2019-04-27T00:13:34.817Z,99771.64
2019-04-27T00:16:17.778Z,99774.61
2019-04-27T00:19:05.874Z,99772.02
2019-04-27T00:21:43.308Z,99777.71
2019-04-27T00:24:13.504Z,99770.80
2019-04-27T00:26:43.363Z,99763.34
2019-04-27T00:29:13.859Z,99767.48
2019-04-27T00:31:43.486Z,99765.28
2019-04-27T00:34:13.726Z,99764.70
2019-04-27T00:36:53.478Z,99758.95
2019-04-27T00:39:32.952Z,99754.88
2019-04-27T00:42:03.297Z,99765.86
2019-04-27T00:44:33.878Z,99761.45
2019-04-27T00:47:04.748Z,99755.92
2019-04-27T00:49:33.867Z,99745.45
2019-04-27T00:52:03.691Z,99752.34
2019-04-27T00:54:33.980Z,99745.55
2019-04-27T00:57:17.936Z,99748.02
2019-04-27T01:00:08.850Z,99736.20
2019-04-27T01:02:54.688Z,99749.42
2019-04-27T01:05:25.652Z,99737.41
2019-04-27T01:07:54.746Z,99743.30
2019-04-27T01:10:23.940Z,99746.79
2019-04-27T01:12:53.218Z,99738.77
2019-04-27T01:15:23.786Z,99728.89
2019-04-27T01:17:53.643Z,99730.09
2019-04-27T01:20:22.966Z,99726.34
2019-04-27T01:22:52.099Z,99721.37
2019-04-27T01:25:22.867Z,99721.16
2019-04-27T01:28:18.329Z,99716.64
2019-04-27T01:30:58.901Z,99710.00
2019-04-27T01:33:30.308Z,99716.81
2019-04-27T01:35:59.517Z,99716.64
2019-04-27T01:38:29.081Z,99717.86
2019-04-27T01:41:00.542Z,99715.16
2019-04-27T01:43:30.269Z,99711.20
2019-04-27T01:46:01.008Z,99706.47
2019-04-27T01:48:30.582Z,99702.02
2019-04-27T01:50:59.985Z,99701.63
2019-04-27T01:53:30.471Z,99701.22
2019-04-27T01:55:59.602Z,99701.53
2019-04-27T01:58:29.300Z,99701.53
2019-04-27T02:01:26.485Z,99705.93
2019-04-27T02:04:09.628Z,99712.48
2019-04-27T02:06:38.830Z,99708.30
2019-04-27T02:09:10.015Z,99709.81
2019-04-27T02:11:39.137Z,99708.24
2019-04-27T02:14:09.479Z,99711.14
2019-04-27T02:16:39.119Z,99710.93
2019-04-27T02:19:11.039Z,99709.84
2019-04-27T02:21:39.493Z,99709.43
2019-04-27T02:24:09.717Z,99709.33
2019-04-27T02:26:39.935Z,99701.59
2019-04-27T02:29:26.424Z,99705.14
2019-04-27T02:32:10.748Z,99710.84
2019-04-27T02:34:46.066Z,99706.38
2019-04-27T02:37:15.508Z,99708.81
2019-04-27T02:39:44.613Z,99701.80
2019-04-27T02:42:13.960Z,99700.05
2019-04-27T02:44:44.764Z,99701.20
2019-04-27T02:47:13.909Z,99704.16
2019-04-27T02:49:43.293Z,99705.95
2019-04-27T02:52:22.367Z,99702.42
2019-04-27T02:54:51.520Z,99705.08
2019-04-27T02:57:20.806Z,99704.13
2019-04-27T02:59:50.556Z,99708.04
2019-04-27T03:02:51.250Z,99701.20
2019-04-27T03:05:29.449Z,99708.19
2019-04-27T03:07:59.783Z,99709.83
2019-04-27T03:10:31.272Z,99707.35
2019-04-27T03:13:20.040Z,99711.29
2019-04-27T03:16:00.929Z,99703.94
2019-04-27T03:19:09.851Z,99699.02
2019-04-27T03:21:29.336Z,99699.13
2019-04-27T03:24:00.072Z,99695.17
2019-04-27T03:26:50.092Z,99689.89
2019-04-27T03:29:22.518Z,99688.45
2019-04-27T03:31:53.946Z,99687.40
2019-04-27T03:34:22.210Z,99691.59
2019-04-27T03:36:53.770Z,99691.83
2019-04-27T03:39:22.950Z,99692.14
2019-04-27T03:41:52.928Z,99694.66
2019-04-27T03:44:22.332Z,99691.79
2019-04-27T03:46:51.465Z,99692.53
2019-04-27T03:49:34.593Z,99694.11
2019-04-27T03:52:00.260Z,99691.92
2019-04-27T03:54:51.397Z,99687.83
2019-04-27T03:57:51.900Z,99686.32
2019-04-27T04:00:23.491Z,99687.38
2019-04-27T04:02:52.615Z,99687.16
2019-04-27T04:05:21.732Z,99684.12
2019-04-27T04:07:51.000Z,99697.84
2019-04-27T04:10:20.245Z,99684.74
2019-04-27T04:13:03.350Z,99690.41
2019-04-27T04:15:45.886Z,99688.89
2019-04-27T04:18:15.026Z,99688.22
2019-04-27T04:20:44.256Z,99684.88
2019-04-27T04:23:13.604Z,99682.08
2019-04-27T04:25:42.699Z,99685.87
2019-04-27T04:28:11.823Z,99692.43
2019-04-27T04:30:41.201Z,99686.83
2019-04-27T04:33:10.607Z,99690.63
2019-04-27T04:35:40.102Z,99691.66
2019-04-27T04:38:10.465Z,99686.05
2019-04-27T04:40:45.357Z,99682.85
2019-04-27T04:43:24.394Z,99682.11
2019-04-27T04:46:13.305Z,99674.78
2019-04-27T04:48:42.604Z,99681.28
2019-04-27T04:51:11.748Z,99679.89
2019-04-27T04:53:40.880Z,99671.49
2019-04-27T04:56:10.715Z,99673.22
2019-04-27T04:58:41.446Z,99670.19
2019-04-27T05:01:10.794Z,99673.00
2019-04-27T05:03:39.893Z,99680.05
2019-04-27T05:06:09.068Z,99674.73
2019-04-27T05:08:39.388Z,99678.16
2019-04-27T05:11:09.664Z,99681.06
2019-04-27T05:13:39.409Z,99686.83
2019-04-27T05:16:09.002Z,99680.63
2019-04-27T05:18:39.372Z,99690.24
2019-04-27T05:21:18.602Z,99686.98
2019-04-27T05:23:48.717Z,99686.66
2019-04-27T05:26:19.024Z,99683.85
2019-04-27T05:28:49.161Z,99691.98
2019-04-27T05:31:19.482Z,99691.72
2019-04-27T05:33:49.106Z,99694.56
2019-04-27T05:36:19.335Z,99692.41
2019-04-27T05:38:49.838Z,99698.98
2019-04-27T05:41:19.056Z,99694.77
2019-04-27T05:44:07.629Z,99691.22
2019-04-27T05:47:10.001Z,99685.38
2019-04-27T05:49:44.755Z,99676.19
2019-04-27T05:52:29.963Z,99674.06
2019-04-27T05:54:59.345Z,99674.75
2019-04-27T05:57:31.487Z,99677.17
2019-04-27T06:00:02.332Z,99676.62
2019-04-27T06:02:30.761Z,99677.36
2019-04-27T06:05:00.293Z,99678.98
2019-04-27T06:07:29.924Z,99673.64
2019-04-27T06:09:59.893Z,99673.25
2019-04-27T06:12:29.801Z,99673.34
2019-04-27T06:14:59.888Z,99670.24
2019-04-27T06:17:29.969Z,99659.69
2019-04-27T06:19:59.753Z,99657.00
2019-04-27T06:22:29.511Z,99653.23
2019-04-27T06:25:00.168Z,99650.66
2019-04-27T06:27:30.670Z,99640.27
2019-04-27T06:30:00.055Z,99648.31
2019-04-27T06:32:29.716Z,99645.91
2019-04-27T06:34:59.342Z,99644.73
2019-04-27T06:37:29.496Z,99649.50
2019-04-27T06:39:59.691Z,99650.62
2019-04-27T06:42:29.810Z,99646.71
2019-04-27T06:44:59.950Z,99639.80
2019-04-27T06:47:29.951Z,99650.59
2019-04-27T06:49:59.095Z,99649.02
2019-04-27T06:52:29.453Z,99652.22
2019-04-27T06:55:00.412Z,99649.46
2019-04-27T06:57:29.663Z,99659.83
2019-04-27T06:59:59.228Z,99648.16
2019-04-27T07:02:29.218Z,99650.44
2019-04-27T07:04:59.236Z,99653.72
2019-04-27T07:07:29.501Z,99651.66
2019-04-27T07:09:59.233Z,99651.64
2019-04-27T07:12:28.952Z,99643.16
2019-04-27T07:14:59.484Z,99642.03
2019-04-27T07:17:29.072Z,99646.72
2019-04-27T07:19:59.480Z,99643.39
2019-04-27T07:22:29.843Z,99643.39
2019-04-27T07:25:00.246Z,99644.75
2019-04-27T07:27:29.451Z,99651.77
2019-04-27T07:29:59.526Z,99640.63
2019-04-27T07:32:29.699Z,99643.31
2019-04-27T07:34:58.876Z,99639.53
2019-04-27T07:37:29.438Z,99633.93
2019-04-27T07:39:59.259Z,99647.45
2019-04-27T07:42:31.512Z,99648.48
2019-04-27T07:45:11.359Z,99641.61
2019-04-27T07:47:43.001Z,99645.02
2019-04-27T07:50:12.408Z,99644.30
2019-04-27T07:52:41.538Z,99646.11
2019-04-27T07:55:10.814Z,99651.58
2019-04-27T07:57:40.089Z,99645.20
2019-04-27T08:00:09.589Z,99642.64
2019-04-27T08:02:39.101Z,99640.72
2019-04-27T08:05:09.349Z,99637.89
2019-04-27T08:07:39.274Z,99640.36
2019-04-27T08:10:09.691Z,99636.83
2019-04-27T08:12:39.149Z,99635.80
2019-04-27T08:15:08.922Z,99641.13
2019-04-27T08:17:42.385Z,99634.48
2019-04-27T08:20:09.975Z,99636.41
2019-04-27T08:22:39.418Z,99638.99
2019-04-27T08:25:09.604Z,99635.94
2019-04-27T08:28:00.800Z,99646.48
2019-04-27T08:30:48.994Z,99644.03
2019-04-27T08:33:19.059Z,99645.45
2019-04-27T08:35:49.091Z,99645.25
2019-04-27T08:38:20.388Z,99648.27
2019-04-27T08:40:49.532Z,99638.52
2019-04-27T08:43:19.189Z,99638.41
2019-04-27T08:45:48.908Z,99638.05
2019-04-27T08:48:33.481Z,99635.66
2019-04-27T08:50:49.098Z,99640.14
2019-04-27T08:53:18.688Z,99626.73
2019-04-27T08:55:49.649Z,99640.45
2019-04-27T08:58:21.093Z,99636.73
2019-04-27T09:00:49.778Z,99632.73
2019-04-27T09:03:19.412Z,99644.97
2019-04-27T09:05:49.113Z,99634.60
2019-04-27T09:08:23.235Z,99635.65
2019-04-27T09:11:10.354Z,99625.65
2019-04-27T09:14:11.171Z,99618.08
2019-04-27T09:16:59.653Z,99620.83
2019-04-27T09:19:45.847Z,99621.19
2019-04-27T09:22:16.578Z,99614.23
2019-04-27T09:24:45.975Z,99621.47
2019-04-27T09:27:17.323Z,99625.80
2019-04-27T09:29:46.021Z,99626.37
2019-04-27T09:32:15.218Z,99628.08
2019-04-27T09:34:44.385Z,99625.28
2019-04-27T09:37:13.558Z,99626.94
2019-04-27T09:39:43.089Z,99630.47
2019-04-27T09:42:12.380Z,99626.06
2019-04-27T09:44:41.610Z,99615.95
2019-04-27T09:47:10.836Z,99615.11
2019-04-27T09:49:39.958Z,99607.45
2019-04-27T09:52:09.140Z,99603.88
2019-04-27T09:54:38.312Z,99593.72
2019-04-27T09:57:07.499Z,99595.35
2019-04-27T09:59:39.390Z,99589.66
2019-04-27T10:02:08.722Z,99593.92
2019-04-27T10:04:38.084Z,99590.66
2019-04-27T10:07:07.464Z,99586.97
2019-04-27T10:09:36.968Z,99590.03
2019-04-27T10:12:07.403Z,99586.69
2019-04-27T10:14:37.055Z,99584.92
2019-04-27T10:17:06.203Z,99588.09
2019-04-27T10:19:36.534Z,99577.38
2019-04-27T10:22:05.935Z,99589.73
2019-04-27T10:24:35.838Z,99591.58
2019-04-27T10:27:07.800Z,99588.38
2019-04-27T10:29:36.662Z,99592.17
2019-04-27T10:32:06.408Z,99589.89
2019-04-27T10:34:35.656Z,99572.13
2019-04-27T10:37:06.054Z,99578.56
2019-04-27T10:39:36.123Z,99578.66
2019-04-27T10:42:06.737Z,99572.22
2019-04-27T10:44:36.093Z,99572.69
2019-04-27T10:47:05.919Z,99574.36
2019-04-27T10:49:35.191Z,99567.38
2019-04-27T10:52:05.881Z,99570.42
2019-04-27T10:54:35.409Z,99569.60
2019-04-27T10:57:06.107Z,99572.12
2019-04-27T10:59:36.095Z,99569.47
2019-04-27T11:02:05.640Z,99574.02
2019-04-27T11:04:50.275Z,99571.36
2019-04-27T11:07:21.076Z,99577.73
2019-04-27T11:09:50.777Z,99563.62
2019-04-27T11:12:20.241Z,99562.53
2019-04-27T11:14:49.432Z,99562.09
2019-04-27T11:17:18.592Z,99564.17
2019-04-27T11:19:47.793Z,99554.12
2019-04-27T11:22:17.006Z,99563.53
2019-04-27T11:24:47.937Z,99557.54
2019-04-27T11:27:17.605Z,99555.47
2019-04-27T11:29:46.894Z,99559.20
2019-04-27T11:32:16.148Z,99553.11
2019-04-27T11:35:16.447Z,99552.94
2019-04-27T11:37:45.745Z,99547.58
2019-04-27T11:40:15.441Z,99546.84
2019-04-27T11:42:44.687Z,99537.63
2019-04-27T11:45:14.463Z,99544.63
2019-04-27T11:47:43.666Z,99527.70
2019-04-27T11:50:16.587Z,99520.23
2019-04-27T11:52:45.876Z,99520.23
2019-04-27T11:55:16.078Z,99529.43
2019-04-27T11:57:47.025Z,99526.21
2019-04-27T12:00:20.815Z,99525.95
2019-04-27T12:02:50.046Z,99531.67
2019-04-27T12:05:19.644Z,99526.95
2019-04-27T12:07:48.818Z,99538.61
2019-04-27T12:10:18.548Z,99532.48
2019-04-27T12:12:47.754Z,99533.90
2019-04-27T12:15:17.903Z,99538.53
2019-04-27T12:17:47.168Z,99540.16
2019-04-27T12:20:17.937Z,99536.13
2019-04-27T12:22:47.250Z,99530.88
2019-04-27T12:25:16.895Z,99523.33
2019-04-27T12:28:04.433Z,99519.41
2019-04-27T12:30:41.524Z,99514.91
2019-04-27T12:33:10.679Z,99508.00
2019-04-27T12:35:39.882Z,99513.85
2019-04-27T12:38:09.323Z,99508.20
2019-04-27T12:40:38.742Z,99499.05
2019-04-27T12:43:07.909Z,99489.27
2019-04-27T12:45:40.014Z,99492.42
2019-04-27T12:48:08.165Z,99481.25
2019-04-27T12:50:37.458Z,99472.44
2019-04-27T12:53:09.549Z,99469.08
2019-04-27T12:55:57.661Z,99461.80
2019-04-27T12:58:42.449Z,99464.12
2019-04-27T13:01:13.400Z,99462.25
2019-04-27T13:03:42.580Z,99462.30
2019-04-27T13:06:11.711Z,99454.66
2019-04-27T13:08:40.893Z,99447.95
2019-04-27T13:11:10.051Z,99451.57
2019-04-27T13:13:39.270Z,99450.63
2019-04-27T13:16:08.451Z,99441.52
2019-04-27T13:18:37.633Z,99431.95
2019-04-27T13:21:06.810Z,99431.82
2019-04-27T13:23:37.136Z,99433.39
2019-04-27T13:26:06.829Z,99424.31
2019-04-27T13:28:36.022Z,99422.12
2019-04-27T13:31:06.747Z,99412.94
2019-04-27T13:33:36.535Z,99411.23
2019-04-27T13:36:07.594Z,99408.77
2019-04-27T13:38:36.819Z,99411.40
2019-04-27T13:41:07.499Z,99407.69
2019-04-27T13:43:37.942Z,99406.66
2019-04-27T13:46:38.843Z,99415.81
2019-04-27T13:49:29.528Z,99396.89
2019-04-27T13:52:02.610Z,99396.60
2019-04-27T13:54:31.830Z,99393.64
2019-04-27T13:57:00.975Z,99400.70
2019-04-27T13:59:31.800Z,99398.34
2019-04-27T14:02:01.024Z,99401.27
2019-04-27T14:04:30.262Z,99404.89
2019-04-27T14:06:59.530Z,99404.80
2019-04-27T14:09:30.387Z,99424.70
2019-04-27T14:12:18.791Z,99453.83
2019-04-27T14:14:50.340Z,99474.79
2019-04-27T14:17:19.625Z,99500.88
2019-04-27T14:19:48.831Z,99535.44
2019-04-27T14:22:18.294Z,99559.95
2019-04-27T14:24:48.734Z,99560.50
2019-04-27T14:27:19.305Z,99560.35
2019-04-27T14:30:30.005Z,99536.07
2019-04-27T14:32:59.794Z,99529.95
2019-04-27T14:35:29.066Z,99539.56
2019-04-27T14:37:58.257Z,99548.59
2019-04-27T14:40:28.794Z,99536.63
2019-04-27T14:42:59.011Z,99553.13
2019-04-27T14:45:28.675Z,99528.68
2019-04-27T14:47:58.268Z,99539.66
2019-04-27T14:50:27.559Z,99545.42
2019-04-27T14:52:56.749Z,99553.75
2019-04-27T14:55:25.939Z,99556.05
2019-04-27T14:57:55.110Z,99548.88
2019-04-27T15:00:24.385Z,99556.18
2019-04-27T15:02:53.555Z,99553.34
2019-04-27T15:05:22.721Z,99546.52
2019-04-27T15:07:52.006Z,99556.17
2019-04-27T15:10:21.209Z,99553.17
2019-04-27T15:12:50.384Z,99542.71
2019-04-27T15:15:21.383Z,99549.95
2019-04-27T15:17:50.909Z,99521.70
2019-04-27T15:20:27.216Z,99511.39
2019-04-27T15:22:58.498Z,99516.98
2019-04-27T15:25:28.261Z,99522.64
2019-04-27T15:28:01.385Z,99522.57
2019-04-27T15:30:49.574Z,99522.52
2019-04-27T15:33:38.857Z,99527.48
2019-04-27T15:36:14.711Z,99511.98
2019-04-27T15:38:49.242Z,99512.95
2019-04-27T15:41:24.299Z,99510.35
2019-04-27T15:43:53.156Z,99510.03
2019-04-27T15:46:22.403Z,99505.67
2019-04-27T15:48:54.192Z,99503.13
2019-04-27T15:51:22.582Z,99499.18
2019-04-27T15:53:53.930Z,99492.73
2019-04-27T15:56:22.639Z,99488.13
2019-04-27T15:58:55.733Z,99485.87
2019-04-27T16:01:22.838Z,99478.21
2019-04-27T16:03:52.290Z,99491.42
2019-04-27T16:06:21.566Z,99497.20
2019-04-27T16:08:50.782Z,99496.63
2019-04-27T16:11:20.016Z,99504.58
2019-04-27T16:13:49.197Z,99500.19
2019-04-27T16:16:18.951Z,99501.01
2019-04-27T16:18:49.116Z,99509.62
2019-04-27T16:21:20.109Z,99511.41
2019-04-27T16:23:49.538Z,99520.74
2019-04-27T16:26:18.868Z,99527.24
2019-04-27T16:28:53.006Z,99535.50
2019-04-27T16:31:20.437Z,99529.48
2019-04-27T16:33:50.091Z,99535.74
2019-04-27T16:36:20.861Z,99539.53
2019-04-27T16:39:03.658Z,99542.70
2019-04-27T16:41:32.962Z,99546.50
2019-04-27T16:44:02.409Z,99550.87
2019-04-27T16:46:35.076Z,99554.52
2019-04-27T16:49:07.444Z,99557.41
2019-04-27T16:51:36.979Z,99549.77
2019-04-27T16:54:05.752Z,99560.14
2019-04-27T16:56:34.925Z,99556.91
2019-04-27T16:59:25.844Z,99563.64
2019-04-27T17:01:34.998Z,99560.44
2019-04-27T17:04:06.457Z,99571.63
2019-04-27T17:06:40.774Z,99590.94
2019-04-27T17:09:11.482Z,99614.66
2019-04-27T17:11:38.956Z,99674.10
2019-04-27T17:14:34.718Z,99678.02
2019-04-27T17:17:21.514Z,99664.98
2019-04-27T17:19:58.111Z,99670.65
2019-04-27T17:22:28.648Z,99679.38
2019-04-27T17:24:58.157Z,99690.09
2019-04-27T17:27:35.688Z,99702.88
2019-04-27T17:30:05.813Z,99700.36
2019-04-27T17:32:41.950Z,99698.22
2019-04-27T17:35:14.679Z,99680.23
2019-04-27T17:37:42.468Z,99674.02
2019-04-27T17:40:15.373Z,99670.22
2019-04-27T17:42:44.561Z,99659.23
2019-04-27T17:45:13.906Z,99652.94
2019-04-27T17:47:43.167Z,99666.13
2019-04-27T17:50:12.924Z,99664.93
2019-04-27T17:52:42.176Z,99660.02
2019-04-27T17:55:11.352Z,99673.23
2019-04-27T17:57:40.510Z,99671.74
2019-04-27T18:00:10.987Z,99666.37
2019-04-27T18:02:42.392Z,99663.03
2019-04-27T18:05:13.679Z,99667.47
2019-04-27T18:07:44.172Z,99662.17
2019-04-27T18:10:21.115Z,99663.78
2019-04-27T18:12:48.815Z,99660.07
2019-04-27T18:15:16.127Z,99662.48
2019-04-27T18:17:50.104Z,99662.66
2019-04-27T18:20:20.779Z,99667.66
2019-04-27T18:22:54.260Z,99660.94
2019-04-27T18:25:23.518Z,99666.31
2019-04-27T18:28:19.179Z,99670.09
2019-04-27T18:31:02.843Z,99670.02
2019-04-27T18:33:32.665Z,99670.23
2019-04-27T18:36:07.308Z,99664.60
2019-04-27T18:38:35.487Z,99665.70
2019-04-27T18:41:08.015Z,99661.27
2019-04-27T18:43:35.941Z,99662.84
2019-04-27T18:46:05.237Z,99674.94
2019-04-27T18:48:54.095Z,99680.68
2019-04-27T18:51:31.269Z,99691.95
2019-04-27T18:54:03.541Z,99711.34
2019-04-27T18:56:33.432Z,99748.40
2019-04-27T18:59:02.449Z,99770.20
2019-04-27T19:01:31.617Z,99776.09
2019-04-27T19:04:00.848Z,99777.69
2019-04-27T19:06:29.989Z,99788.03
2019-04-27T19:08:59.200Z,99786.36
2019-04-27T19:11:29.055Z,99794.77
2019-04-27T19:13:59.080Z,99799.09
2019-04-27T19:16:29.379Z,99798.08
2019-04-27T19:18:58.573Z,99789.59
2019-04-27T19:21:28.891Z,99801.61
2019-04-27T19:23:58.610Z,99796.89
2019-04-27T19:26:50.734Z,99801.80
2019-04-27T19:29:23.322Z,99806.51
2019-04-27T19:32:00.377Z,99804.84
2019-04-27T19:34:30.433Z,99808.64
2019-04-27T19:36:59.569Z,99809.17
2019-04-27T19:39:28.793Z,99806.77
2019-04-27T19:42:03.012Z,99815.45
2019-04-27T19:44:29.343Z,99812.22
2019-04-27T19:47:00.205Z,99827.20
2019-04-27T19:49:31.823Z,99826.26
2019-04-27T19:52:00.625Z,99832.76
2019-04-27T19:54:30.238Z,99832.45
2019-04-27T19:56:59.745Z,99839.50
2019-04-27T19:59:38.281Z,99836.27
2019-04-27T20:02:11.871Z,99837.93
2019-04-27T20:04:43.040Z,99837.44
2019-04-27T20:07:12.286Z,99840.22
2019-04-27T20:09:58.924Z,99843.91
2019-04-27T20:12:28.182Z,99851.02
2019-04-27T20:14:57.581Z,99851.67
2019-04-27T20:17:27.801Z,99853.61
2019-04-27T20:19:57.041Z,99855.92
2019-04-27T20:22:26.306Z,99865.36
2019-04-27T20:24:55.551Z,99867.38
2019-04-27T20:27:24.773Z,99871.52
2019-04-27T20:29:54.036Z,99878.74
2019-04-27T20:32:23.608Z,99883.53
2019-04-27T20:34:52.796Z,99885.34
2019-04-27T20:37:21.960Z,99899.02
2019-04-27T20:39:51.606Z,99901.86
2019-04-27T20:42:21.277Z,99903.88
2019-04-27T20:44:51.653Z,99915.70
2019-04-27T20:47:21.000Z,99907.37
2019-04-27T20:49:50.220Z,99916.36
2019-04-27T20:52:52.948Z,99906.25
2019-04-27T20:55:22.575Z,99917.59
2019-04-27T20:57:59.568Z,99920.17
2019-04-27T21:00:23.498Z,99926.08
2019-04-27T21:03:06.534Z,99932.08
2019-04-27T21:05:53.531Z,99911.41
2019-04-27T21:08:23.354Z,99926.30
2019-04-27T21:10:52.510Z,99930.53
2019-04-27T21:13:21.758Z,99921.95
2019-04-27T21:15:51.281Z,99915.41
2019-04-27T21:18:21.750Z,99924.60
2019-04-27T21:20:51.233Z,99924.80
2019-04-27T21:23:21.013Z,99928.12
2019-04-27T21:25:53.034Z,99932.89
2019-04-27T21:28:21.335Z,99940.44
2019-04-27T21:30:50.552Z,99936.20
2019-04-27T21:33:21.545Z,99944.17
2019-04-27T21:35:51.152Z,99947.17
2019-04-27T21:38:20.600Z,99950.95
2019-04-27T21:40:49.785Z,99953.74
2019-04-27T21:43:21.976Z,99954.66
2019-04-27T21:45:51.303Z,99953.19
2019-04-27T21:48:21.234Z,99961.74
2019-04-27T21:50:51.605Z,99960.00
2019-04-27T21:53:58.384Z,99959.02
2019-04-27T21:56:27.635Z,99963.34
2019-04-27T21:58:56.802Z,99960.97
2019-04-27T22:01:35.027Z,99958.48
2019-04-27T22:04:04.699Z,99955.06
2019-04-27T22:06:33.902Z,99957.09
2019-04-27T22:09:04.736Z,99960.31
2019-04-27T22:11:33.930Z,99960.73
2019-04-27T22:14:05.863Z,99962.30
2019-04-27T22:16:34.134Z,99957.06
2019-04-27T22:19:03.518Z,99960.03
2019-04-27T22:21:32.982Z,99962.16
2019-04-27T22:24:36.146Z,99963.24
2019-04-27T22:27:05.475Z,99965.03
2019-04-27T22:29:34.686Z,99961.64
2019-04-27T22:32:03.950Z,99967.78
2019-04-27T22:34:33.122Z,99966.31
2019-04-27T22:37:02.709Z,99968.45
2019-04-27T22:39:41.190Z,99972.60
2019-04-27T22:42:41.736Z,99974.91
2019-04-27T22:45:18.652Z,99975.81
2019-04-27T22:47:47.878Z,99974.45
2019-04-27T22:50:17.010Z,99976.06
2019-04-27T22:52:46.224Z,99972.85
2019-04-27T22:55:15.490Z,99977.49
2019-04-27T22:57:53.150Z,99969.84
2019-04-27T23:00:44.095Z,99974.70
2019-04-27T23:03:18.142Z,99967.15
2019-04-27T23:05:47.369Z,99966.06
2019-04-27T23:08:16.494Z,99959.81
2019-04-27T23:10:45.644Z,99950.66
2019-04-27T23:13:14.913Z,99955.37
2019-04-27T23:15:46.797Z,99953.45
2019-04-27T23:18:15.904Z,99963.05
2019-04-27T23:20:45.256Z,99966.34
2019-04-27T23:23:14.424Z,99964.04
2019-04-27T23:25:43.706Z,99965.19
2019-04-27T23:28:12.836Z,99961.55
2019-04-27T23:31:06.884Z,99965.23
2019-04-27T23:33:38.156Z,99974.59
2019-04-27T23:36:07.297Z,99973.44
2019-04-27T23:38:36.449Z,99975.86
2019-04-27T23:41:05.620Z,99977.66
2019-04-27T23:43:34.769Z,99979.31
2019-04-27T23:46:04.012Z,99974.45
2019-04-27T23:48:33.101Z,99970.47
2019-04-27T23:51:22.194Z,99975.71
2019-04-27T23:53:51.739Z,99978.95
2019-04-27T23:56:22.562Z,99980.53
2019-04-27T23:58:51.820Z,99974.56
